createdAt,value
2023-01-08T00:00:32.860Z,8.12
2023-01-08T00:05:37.106Z,8.12
2023-01-08T00:10:40.286Z,8.10
2023-01-08T00:15:43.004Z,8.09
2023-01-08T00:20:47.895Z,8.08
2023-01-08T00:25:50.921Z,8.05
2023-01-08T00:30:53.612Z,8.03
2023-01-08T00:35:57.747Z,8.04
2023-01-08T00:41:00.613Z,8.08
2023-01-08T00:46:03.479Z,8.12
2023-01-08T00:51:08.924Z,8.16
2023-01-08T00:56:11.723Z,8.18
2023-01-08T01:01:16.174Z,8.20
2023-01-08T01:06:20.501Z,8.22
2023-01-08T01:11:24.801Z,8.28
2023-01-08T01:16:27.566Z,8.32
2023-01-08T01:21:33.488Z,8.35
2023-01-08T01:26:36.167Z,8.37
2023-01-08T01:31:38.888Z,8.39
2023-01-08T01:36:43.000Z,8.39
2023-01-08T01:41:47.358Z,8.36
2023-01-08T01:46:50.833Z,8.33
2023-01-08T01:51:57.478Z,8.30
2023-01-08T01:57:01.370Z,8.29
2023-01-08T02:02:04.222Z,8.32
2023-01-08T02:07:12.809Z,8.27
2023-01-08T02:12:19.061Z,8.25
2023-01-08T02:17:26.242Z,8.20
2023-01-08T02:22:39.117Z,8.21
2023-01-08T02:27:46.440Z,8.17
2023-01-08T02:32:49.188Z,8.19
2023-01-08T02:37:51.919Z,8.18
2023-01-08T02:43:01.026Z,8.16
2023-01-08T02:48:08.802Z,8.12
2023-01-08T02:53:14.301Z,8.09
2023-01-08T02:58:19.152Z,8.06
2023-01-08T03:03:24.024Z,8.12
2023-01-08T03:08:27.267Z,8.16
2023-01-08T03:13:41.354Z,8.21
2023-01-08T03:18:48.245Z,8.27
2023-01-08T03:23:51.852Z,8.26
2023-01-08T03:28:57.582Z,8.31
2023-01-08T03:34:01.383Z,8.39
2023-01-08T03:39:09.318Z,8.43
2023-01-08T03:44:13.340Z,8.46
2023-01-08T03:49:16.668Z,8.50
2023-01-08T03:54:20.957Z,8.53
2023-01-08T03:59:25.391Z,8.59
2023-01-08T04:04:28.326Z,8.62
2023-01-08T04:09:35.991Z,8.63
2023-01-08T04:14:40.079Z,8.65
2023-01-08T04:19:42.764Z,8.64
2023-01-08T04:24:45.432Z,8.62
2023-01-08T04:29:49.522Z,8.63
2023-01-08T04:34:52.202Z,8.61
2023-01-08T04:39:54.905Z,8.59
2023-01-08T04:44:58.964Z,8.60
2023-01-08T04:50:01.715Z,8.59
2023-01-08T04:55:04.903Z,8.58
2023-01-08T05:00:10.213Z,8.56
2023-01-08T05:05:12.938Z,8.57
2023-01-08T05:10:15.883Z,8.59
2023-01-08T05:15:20.036Z,8.58
2023-01-08T05:20:22.740Z,8.62
2023-01-08T05:25:25.772Z,8.61
2023-01-08T05:30:29.825Z,8.60
2023-01-08T05:35:32.572Z,8.60
2023-01-08T05:40:35.420Z,8.56
2023-01-08T05:45:39.472Z,8.57
2023-01-08T05:50:42.242Z,8.60
2023-01-08T05:55:44.959Z,8.61
2023-01-08T06:00:49.046Z,8.62
2023-01-08T06:05:51.791Z,8.64
2023-01-08T06:10:54.646Z,8.62
2023-01-08T06:16:00.281Z,8.61
2023-01-08T06:21:04.464Z,8.66
2023-01-08T06:26:07.371Z,8.66
2023-01-08T06:31:11.446Z,8.68
2023-01-08T06:36:14.156Z,8.65
2023-01-08T06:41:16.919Z,8.67
2023-01-08T06:46:21.091Z,8.70
2023-01-08T06:51:23.852Z,8.68
2023-01-08T06:56:26.801Z,8.65
2023-01-08T07:01:30.943Z,8.65
2023-01-08T07:06:33.697Z,8.67
2023-01-08T07:11:36.744Z,8.66
2023-01-08T07:16:40.882Z,8.65
2023-01-08T07:21:43.632Z,8.67
2023-01-08T07:26:46.333Z,8.66
2023-01-08T07:31:50.414Z,8.68
2023-01-08T07:36:53.179Z,8.68
2023-01-08T07:41:56.257Z,8.67
2023-01-08T07:47:00.293Z,8.65
2023-01-08T07:52:02.990Z,8.67
2023-01-08T07:57:05.848Z,8.66
2023-01-08T08:02:11.888Z,8.64
2023-01-08T08:07:14.913Z,8.63
2023-01-08T08:12:17.683Z,8.62
2023-01-08T08:17:21.842Z,8.65
2023-01-08T08:22:24.587Z,8.65
2023-01-08T08:27:27.586Z,8.66
2023-01-08T08:32:31.785Z,8.68
2023-01-08T08:37:34.515Z,8.71
2023-01-08T08:42:42.660Z,8.71
2023-01-08T08:47:46.798Z,8.69
2023-01-08T08:52:49.891Z,8.69
2023-01-08T08:57:52.958Z,8.72
2023-01-08T09:02:57.200Z,8.73
2023-01-08T09:08:00.124Z,8.75
2023-01-08T09:13:02.972Z,8.81
2023-01-08T09:18:07.176Z,8.85
2023-01-08T09:23:10.790Z,8.88
2023-01-08T09:28:13.983Z,8.90
2023-01-08T09:33:18.030Z,8.92
2023-01-08T09:38:20.725Z,8.88
2023-01-08T09:43:24.691Z,8.87
2023-01-08T09:48:31.084Z,8.89
2023-01-08T09:53:34.217Z,8.90
2023-01-08T09:58:39.756Z,8.91
2023-01-08T10:03:46.437Z,8.91
2023-01-08T10:08:51.021Z,8.93
2023-01-08T10:13:55.957Z,9.00
2023-01-08T10:19:01.734Z,9.01
2023-01-08T10:24:05.028Z,9.05
2023-01-08T10:29:10.257Z,9.09
2023-01-08T10:34:24.104Z,9.08
2023-01-08T10:39:28.547Z,9.08
2023-01-08T10:44:31.473Z,9.10
2023-01-08T10:49:39.110Z,9.10
2023-01-08T10:54:42.221Z,9.11
2023-01-08T10:59:45.289Z,9.15
2023-01-08T11:04:51.233Z,9.20
2023-01-08T11:09:54.449Z,9.24
2023-01-08T11:14:57.546Z,9.23
2023-01-08T11:20:11.219Z,9.21
2023-01-08T11:25:16.140Z,9.20
2023-01-08T11:30:20.991Z,9.19
2023-01-08T11:35:26.914Z,9.21
2023-01-08T11:40:43.153Z,9.20
2023-01-08T11:46:04.051Z,9.19
2023-01-08T11:51:29.633Z,9.17
2023-01-08T11:56:41.868Z,9.15
2023-01-08T12:01:51.398Z,9.15
2023-01-08T12:07:00.465Z,9.14
2023-01-08T12:12:09.898Z,9.12
2023-01-08T12:17:41.193Z,9.15
2023-01-08T12:22:49.671Z,9.20
2023-01-08T12:27:59.942Z,9.22
2023-01-08T12:33:06.146Z,9.23
2023-01-08T12:38:14.967Z,9.27
2023-01-08T12:43:21.420Z,9.29
2023-01-08T12:48:26.755Z,9.31
2023-01-08T12:53:41.338Z,9.29
2023-01-08T12:58:52.809Z,9.29
2023-01-08T13:03:56.302Z,9.30
2023-01-08T13:09:01.789Z,9.29
2023-01-08T13:14:06.489Z,9.27
2023-01-08T13:19:24.444Z,9.26
2023-01-08T13:24:31.553Z,9.24
2023-01-08T13:29:41.675Z,9.24
2023-01-08T13:34:44.480Z,9.25
2023-01-08T13:39:48.789Z,9.28
2023-01-08T13:44:53.237Z,9.29
2023-01-08T13:49:56.898Z,9.32
2023-01-08T13:55:01.744Z,9.33
2023-01-08T14:00:06.688Z,9.35
2023-01-08T14:05:19.828Z,9.35
2023-01-08T14:10:26.167Z,9.35
2023-01-08T14:15:29.871Z,9.32
2023-01-08T14:20:34.338Z,9.33
2023-01-08T14:25:38.633Z,9.34
2023-01-08T14:30:48.870Z,9.36
2023-01-08T14:35:52.202Z,9.38
2023-01-08T14:41:02.121Z,9.44
2023-01-08T14:46:05.113Z,9.47
2023-01-08T14:51:09.286Z,9.47
2023-01-08T14:56:14.611Z,9.43
2023-01-08T15:01:19.729Z,9.41
2023-01-08T15:06:26.322Z,9.37
2023-01-08T15:11:31.979Z,9.35
2023-01-08T15:16:38.731Z,9.27
2023-01-08T15:21:46.955Z,9.23
2023-01-08T15:26:51.399Z,9.14
2023-01-08T15:31:54.471Z,9.07
2023-01-08T15:36:57.237Z,9.02
2023-01-08T15:42:27.573Z,8.98
2023-01-08T15:47:30.271Z,8.98
2023-01-08T15:52:33.448Z,8.98
2023-01-08T15:57:39.780Z,9.01
2023-01-08T16:02:46.473Z,9.02
2023-01-08T16:07:49.715Z,8.99
2023-01-08T16:12:53.938Z,8.95
2023-01-08T16:17:56.894Z,8.94
2023-01-08T16:22:59.796Z,8.88
2023-01-08T16:28:04.161Z,8.79
2023-01-08T16:33:07.006Z,8.74
2023-01-08T16:38:10.786Z,8.71
2023-01-08T16:43:14.900Z,8.68
2023-01-08T16:48:17.864Z,8.67
2023-01-08T16:53:21.870Z,8.65
2023-01-08T16:58:26.034Z,8.66
2023-01-08T17:03:28.957Z,8.66
2023-01-08T17:08:31.721Z,8.61
2023-01-08T17:13:35.932Z,8.60
2023-01-08T17:18:38.997Z,8.58
2023-01-08T17:23:41.966Z,8.50
2023-01-08T17:28:47.116Z,8.52
2023-01-08T17:33:51.057Z,8.57
2023-01-08T17:38:54.520Z,8.56
2023-01-08T17:44:01.882Z,8.51
2023-01-08T17:49:04.680Z,8.50
2023-01-08T17:54:09.740Z,8.53
2023-01-08T17:59:15.700Z,8.54
2023-01-08T18:04:18.505Z,8.51
2023-01-08T18:09:21.620Z,8.49
2023-01-08T18:14:25.784Z,8.49
2023-01-08T18:19:28.547Z,8.53
2023-01-08T18:24:31.503Z,8.55
2023-01-08T18:29:35.736Z,8.50
2023-01-08T18:34:38.827Z,8.54
2023-01-08T18:39:45.706Z,8.56
2023-01-08T18:44:52.546Z,8.54
2023-01-08T18:49:55.927Z,8.53
2023-01-08T18:54:58.725Z,8.49
2023-01-08T19:00:04.520Z,8.48
2023-01-08T19:05:08.013Z,8.43
2023-01-08T19:10:12.374Z,8.46
2023-01-08T19:15:16.686Z,8.48
2023-01-08T19:20:19.619Z,8.48
2023-01-08T19:25:22.476Z,8.46
2023-01-08T19:30:26.682Z,8.45
2023-01-08T19:35:29.535Z,8.44
2023-01-08T19:40:32.353Z,8.44
2023-01-08T19:45:37.960Z,8.44
2023-01-08T19:50:41.108Z,8.48
2023-01-08T19:55:45.269Z,8.47
2023-01-08T20:00:49.460Z,8.46
2023-01-08T20:05:52.267Z,8.43
2023-01-08T20:10:55.082Z,8.44
2023-01-08T20:15:59.221Z,8.39
2023-01-08T20:21:06.735Z,8.34
2023-01-08T20:26:12.007Z,8.26
2023-01-08T20:31:18.996Z,8.24
2023-01-08T20:36:23.850Z,8.17
2023-01-08T20:41:27.232Z,8.10
2023-01-08T20:46:31.444Z,8.04
2023-01-08T20:51:39.552Z,8.03
2023-01-08T20:56:42.693Z,8.03
2023-01-08T21:01:46.870Z,7.95
2023-01-08T21:06:49.944Z,7.89
2023-01-08T21:11:52.839Z,7.91
2023-01-08T21:16:57.327Z,7.90
2023-01-08T21:22:00.051Z,7.87
2023-01-08T21:27:03.470Z,7.87
2023-01-08T21:32:08.027Z,7.83
2023-01-08T21:37:10.863Z,7.82
2023-01-08T21:42:31.341Z,7.79
2023-01-08T21:47:35.421Z,7.79
2023-01-08T21:52:55.156Z,7.79
2023-01-08T21:57:57.853Z,7.76
2023-01-08T22:03:01.974Z,7.76
2023-01-08T22:08:05.433Z,7.78
2023-01-08T22:13:13.404Z,7.75
2023-01-08T22:18:17.691Z,7.75
2023-01-08T22:23:20.385Z,7.74
2023-01-08T22:28:23.316Z,7.73
2023-01-08T22:33:27.402Z,7.72
2023-01-08T22:38:30.181Z,7.68
2023-01-08T22:43:37.811Z,7.60
2023-01-08T22:48:41.987Z,7.41
2023-01-08T22:53:45.146Z,7.30
2023-01-08T22:58:47.911Z,7.28
2023-01-08T23:03:52.336Z,7.30
2023-01-08T23:08:56.126Z,7.37
2023-01-08T23:14:00.882Z,7.42
2023-01-08T23:19:04.942Z,7.39
2023-01-08T23:24:08.840Z,7.38
2023-01-08T23:29:11.886Z,7.36
2023-01-08T23:34:16.256Z,7.34
2023-01-08T23:39:26.561Z,7.28
2023-01-08T23:44:29.535Z,7.11
2023-01-08T23:49:34.517Z,7.11
2023-01-08T23:54:37.301Z,7.04
2023-01-08T23:59:40.039Z,6.96
